sensor_id;sensor_type;location;lat;lon;timestamp;P1;durP1;ratioP1;P2;durP2;ratioP2
62947;SDS011;51940;52.126;-0.994;2022-08-21T00:01:21;4.80;;;1.20;;
62947;SDS011;51940;52.126;-0.994;2022-08-21T00:03:49;5.00;;;1.30;;
62947;SDS011;51940;52.126;-0.994;2022-08-21T00:06:15;4.10;;;1.40;;
62947;SDS011;51940;52.126;-0.994;2022-08-21T00:08:41;4.70;;;1.40;;
62947;SDS011;51940;52.126;-0.994;2022-08-21T00:11:06;3.70;;;2.30;;
62947;SDS011;51940;52.126;-0.994;2022-08-21T00:13:32;4.20;;;1.60;;
62947;SDS011;51940;52.126;-0.994;2022-08-21T00:15:59;3.20;;;1.30;;
62947;SDS011;51940;52.126;-0.994;2022-08-21T00:18:25;5.50;;;1.30;;
62947;SDS011;51940;52.126;-0.994;2022-08-21T00:20:51;7.60;;;1.50;;
62947;SDS011;51940;52.126;-0.994;2022-08-21T00:23:21;4.30;;;1.40;;
62947;SDS011;51940;52.126;-0.994;2022-08-21T00:25:46;5.20;;;1.50;;
62947;SDS011;51940;52.126;-0.994;2022-08-21T00:28:12;5.00;;;1.30;;
62947;SDS011;51940;52.126;-0.994;2022-08-21T00:30:39;4.60;;;1.30;;
62947;SDS011;51940;52.126;-0.994;2022-08-21T00:33:05;4.50;;;1.50;;
62947;SDS011;51940;52.126;-0.994;2022-08-21T00:35:33;3.90;;;1.40;;
62947;SDS011;51940;52.126;-0.994;2022-08-21T00:38:03;8.30;;;1.70;;
62947;SDS011;51940;52.126;-0.994;2022-08-21T00:40:32;5.90;;;1.80;;
62947;SDS011;51940;52.126;-0.994;2022-08-21T00:43:26;4.00;;;1.60;;
62947;SDS011;51940;52.126;-0.994;2022-08-21T00:45:54;4.70;;;1.40;;
62947;SDS011;51940;52.126;-0.994;2022-08-21T00:48:20;6.30;;;1.80;;
62947;SDS011;51940;52.126;-0.994;2022-08-21T00:50:51;6.20;;;1.40;;
62947;SDS011;51940;52.126;-0.994;2022-08-21T00:53:22;3.90;;;1.50;;
62947;SDS011;51940;52.126;-0.994;2022-08-21T00:55:48;5.80;;;1.40;;
62947;SDS011;51940;52.126;-0.994;2022-08-21T00:58:15;7.00;;;1.50;;
62947;SDS011;51940;52.126;-0.994;2022-08-21T01:00:43;7.70;;;1.70;;
62947;SDS011;51940;52.126;-0.994;2022-08-21T01:03:18;6.40;;;1.60;;
62947;SDS011;51940;52.126;-0.994;2022-08-21T01:05:46;6.20;;;1.50;;
62947;SDS011;51940;52.126;-0.994;2022-08-21T01:08:12;6.00;;;1.30;;
62947;SDS011;51940;52.126;-0.994;2022-08-21T01:10:40;7.80;;;1.30;;
62947;SDS011;51940;52.126;-0.994;2022-08-21T01:13:07;4.90;;;1.50;;
62947;SDS011;51940;52.126;-0.994;2022-08-21T01:15:35;3.90;;;1.40;;
62947;SDS011;51940;52.126;-0.994;2022-08-21T01:18:05;6.70;;;1.30;;
62947;SDS011;51940;52.126;-0.994;2022-08-21T01:20:32;3.10;;;1.40;;
62947;SDS011;51940;52.126;-0.994;2022-08-21T01:22:58;8.00;;;1.60;;
62947;SDS011;51940;52.126;-0.994;2022-08-21T01:25:25;8.90;;;1.70;;
62947;SDS011;51940;52.126;-0.994;2022-08-21T01:27:50;4.10;;;1.50;;
62947;SDS011;51940;52.126;-0.994;2022-08-21T01:30:18;5.00;;;1.40;;
62947;SDS011;51940;52.126;-0.994;2022-08-21T01:32:47;9.80;;;1.60;;
62947;SDS011;51940;52.126;-0.994;2022-08-21T01:35:14;6.50;;;1.50;;
62947;SDS011;51940;52.126;-0.994;2022-08-21T01:37:41;3.10;;;1.30;;
62947;SDS011;51940;52.126;-0.994;2022-08-21T01:40:08;4.80;;;1.40;;
62947;SDS011;51940;52.126;-0.994;2022-08-21T01:42:35;5.50;;;1.50;;
62947;SDS011;51940;52.126;-0.994;2022-08-21T01:45:02;4.40;;;1.50;;
62947;SDS011;51940;52.126;-0.994;2022-08-21T01:47:28;4.50;;;1.60;;
62947;SDS011;51940;52.126;-0.994;2022-08-21T01:49:54;8.00;;;1.50;;
62947;SDS011;51940;52.126;-0.994;2022-08-21T01:52:20;4.50;;;1.80;;
62947;SDS011;51940;52.126;-0.994;2022-08-21T01:54:45;3.90;;;1.60;;
62947;SDS011;51940;52.126;-0.994;2022-08-21T01:57:11;4.80;;;1.60;;
62947;SDS011;51940;52.126;-0.994;2022-08-21T01:59:38;4.30;;;1.70;;
62947;SDS011;51940;52.126;-0.994;2022-08-21T02:02:04;7.10;;;1.50;;
62947;SDS011;51940;52.126;-0.994;2022-08-21T02:04:30;7.80;;;2.30;;
62947;SDS011;51940;52.126;-0.994;2022-08-21T02:06:56;7.60;;;1.60;;
62947;SDS011;51940;52.126;-0.994;2022-08-21T02:09:21;6.30;;;1.50;;
62947;SDS011;51940;52.126;-0.994;2022-08-21T02:11:47;4.90;;;1.80;;
62947;SDS011;51940;52.126;-0.994;2022-08-21T02:14:14;7.10;;;1.90;;
62947;SDS011;51940;52.126;-0.994;2022-08-21T02:16:40;5.40;;;1.80;;
62947;SDS011;51940;52.126;-0.994;2022-08-21T02:19:08;6.40;;;1.80;;
62947;SDS011;51940;52.126;-0.994;2022-08-21T02:21:34;4.70;;;1.40;;
62947;SDS011;51940;52.126;-0.994;2022-08-21T02:23:59;6.20;;;1.50;;
62947;SDS011;51940;52.126;-0.994;2022-08-21T02:26:25;8.70;;;1.60;;
62947;SDS011;51940;52.126;-0.994;2022-08-21T02:28:51;4.20;;;1.60;;
62947;SDS011;51940;52.126;-0.994;2022-08-21T02:31:17;6.30;;;1.70;;
62947;SDS011;51940;52.126;-0.994;2022-08-21T02:33:43;5.40;;;1.80;;
62947;SDS011;51940;52.126;-0.994;2022-08-21T02:36:09;6.10;;;1.70;;
62947;SDS011;51940;52.126;-0.994;2022-08-21T02:38:36;6.00;;;2.00;;
62947;SDS011;51940;52.126;-0.994;2022-08-21T02:41:03;6.20;;;2.00;;
62947;SDS011;51940;52.126;-0.994;2022-08-21T02:43:33;6.50;;;1.60;;
62947;SDS011;51940;52.126;-0.994;2022-08-21T02:45:59;5.70;;;1.60;;
62947;SDS011;51940;52.126;-0.994;2022-08-21T02:48:29;8.30;;;1.70;;
62947;SDS011;51940;52.126;-0.994;2022-08-21T02:51:00;3.30;;;1.60;;
62947;SDS011;51940;52.126;-0.994;2022-08-21T02:53:30;6.50;;;1.60;;
62947;SDS011;51940;52.126;-0.994;2022-08-21T02:55:57;7.70;;;1.80;;
62947;SDS011;51940;52.126;-0.994;2022-08-21T02:58:26;3.80;;;1.50;;
62947;SDS011;51940;52.126;-0.994;2022-08-21T03:00:56;5.80;;;1.60;;
62947;SDS011;51940;52.126;-0.994;2022-08-21T03:03:23;6.30;;;1.70;;
62947;SDS011;51940;52.126;-0.994;2022-08-21T03:05:49;8.80;;;1.70;;
62947;SDS011;51940;52.126;-0.994;2022-08-21T03:08:16;6.70;;;1.80;;
62947;SDS011;51940;52.126;-0.994;2022-08-21T03:10:44;6.30;;;1.80;;
62947;SDS011;51940;52.126;-0.994;2022-08-21T03:13:11;4.80;;;1.90;;
62947;SDS011;51940;52.126;-0.994;2022-08-21T03:15:39;4.90;;;1.70;;
62947;SDS011;51940;52.126;-0.994;2022-08-21T03:18:05;8.20;;;2.10;;
62947;SDS011;51940;52.126;-0.994;2022-08-21T03:20:32;9.20;;;2.30;;
62947;SDS011;51940;52.126;-0.994;2022-08-21T03:22:59;7.80;;;2.40;;
62947;SDS011;51940;52.126;-0.994;2022-08-21T03:25:30;6.80;;;1.70;;
62947;SDS011;51940;52.126;-0.994;2022-08-21T03:28:00;5.00;;;1.80;;
62947;SDS011;51940;52.126;-0.994;2022-08-21T03:30:27;6.40;;;1.70;;
62947;SDS011;51940;52.126;-0.994;2022-08-21T03:32:53;4.70;;;1.70;;
62947;SDS011;51940;52.126;-0.994;2022-08-21T03:35:19;5.90;;;1.70;;
62947;SDS011;51940;52.126;-0.994;2022-08-21T03:37:44;6.50;;;1.90;;
62947;SDS011;51940;52.126;-0.994;2022-08-21T03:40:12;6.70;;;1.90;;
62947;SDS011;51940;52.126;-0.994;2022-08-21T03:42:40;4.90;;;1.80;;
62947;SDS011;51940;52.126;-0.994;2022-08-21T03:45:06;5.20;;;1.50;;
62947;SDS011;51940;52.126;-0.994;2022-08-21T03:47:32;6.70;;;2.50;;
62947;SDS011;51940;52.126;-0.994;2022-08-21T03:49:58;8.20;;;1.90;;
62947;SDS011;51940;52.126;-0.994;2022-08-21T03:52:24;5.60;;;2.00;;
62947;SDS011;51940;52.126;-0.994;2022-08-21T03:54:50;10.40;;;1.80;;
62947;SDS011;51940;52.126;-0.994;2022-08-21T03:57:15;7.00;;;1.90;;
62947;SDS011;51940;52.126;-0.994;2022-08-21T03:59:41;6.10;;;2.00;;
62947;SDS011;51940;52.126;-0.994;2022-08-21T04:02:08;8.70;;;2.40;;
62947;SDS011;51940;52.126;-0.994;2022-08-21T04:04:36;8.80;;;2.20;;
62947;SDS011;51940;52.126;-0.994;2022-08-21T04:07:02;8.00;;;2.30;;
62947;SDS011;51940;52.126;-0.994;2022-08-21T04:09:28;6.60;;;2.00;;
62947;SDS011;51940;52.126;-0.994;2022-08-21T04:11:55;8.80;;;2.20;;
62947;SDS011;51940;52.126;-0.994;2022-08-21T04:14:21;2.60;;;1.50;;
62947;SDS011;51940;52.126;-0.994;2022-08-21T04:16:47;9.20;;;2.00;;
62947;SDS011;51940;52.126;-0.994;2022-08-21T04:19:13;6.30;;;2.10;;
62947;SDS011;51940;52.126;-0.994;2022-08-21T04:21:39;6.00;;;2.00;;
62947;SDS011;51940;52.126;-0.994;2022-08-21T04:24:06;5.30;;;1.70;;
62947;SDS011;51940;52.126;-0.994;2022-08-21T04:26:35;11.30;;;2.10;;
62947;SDS011;51940;52.126;-0.994;2022-08-21T04:29:02;5.30;;;2.40;;
62947;SDS011;51940;52.126;-0.994;2022-08-21T04:31:29;4.10;;;1.70;;
62947;SDS011;51940;52.126;-0.994;2022-08-21T04:33:55;12.20;;;3.10;;
62947;SDS011;51940;52.126;-0.994;2022-08-21T04:36:21;4.40;;;2.40;;
62947;SDS011;51940;52.126;-0.994;2022-08-21T04:38:47;5.30;;;2.00;;
62947;SDS011;51940;52.126;-0.994;2022-08-21T04:41:13;6.30;;;2.00;;
62947;SDS011;51940;52.126;-0.994;2022-08-21T04:43:40;5.30;;;2.30;;
62947;SDS011;51940;52.126;-0.994;2022-08-21T04:46:06;8.40;;;2.30;;
62947;SDS011;51940;52.126;-0.994;2022-08-21T04:48:31;8.80;;;2.60;;
62947;SDS011;51940;52.126;-0.994;2022-08-21T04:51:08;6.60;;;2.10;;
62947;SDS011;51940;52.126;-0.994;2022-08-21T04:53:59;5.90;;;2.10;;
62947;SDS011;51940;52.126;-0.994;2022-08-21T04:56:41;5.70;;;2.10;;
62947;SDS011;51940;52.126;-0.994;2022-08-21T05:01:38;6.90;;;2.10;;
62947;SDS011;51940;52.126;-0.994;2022-08-21T05:04:05;5.60;;;1.90;;
62947;SDS011;51940;52.126;-0.994;2022-08-21T05:06:36;5.40;;;1.80;;
62947;SDS011;51940;52.126;-0.994;2022-08-21T05:09:04;4.30;;;2.20;;
62947;SDS011;51940;52.126;-0.994;2022-08-21T05:11:31;6.80;;;2.00;;
62947;SDS011;51940;52.126;-0.994;2022-08-21T05:13:57;5.90;;;1.90;;
62947;SDS011;51940;52.126;-0.994;2022-08-21T05:16:23;6.20;;;2.00;;
62947;SDS011;51940;52.126;-0.994;2022-08-21T05:18:49;5.80;;;2.00;;
62947;SDS011;51940;52.126;-0.994;2022-08-21T05:21:16;9.60;;;2.30;;
62947;SDS011;51940;52.126;-0.994;2022-08-21T05:23:41;4.40;;;2.10;;
62947;SDS011;51940;52.126;-0.994;2022-08-21T05:26:07;9.60;;;2.00;;
62947;SDS011;51940;52.126;-0.994;2022-08-21T05:28:33;8.10;;;2.10;;
62947;SDS011;51940;52.126;-0.994;2022-08-21T05:30:58;6.60;;;2.40;;
62947;SDS011;51940;52.126;-0.994;2022-08-21T05:33:24;8.90;;;2.00;;
62947;SDS011;51940;52.126;-0.994;2022-08-21T05:35:51;3.80;;;1.90;;
62947;SDS011;51940;52.126;-0.994;2022-08-21T05:38:17;6.40;;;2.20;;
62947;SDS011;51940;52.126;-0.994;2022-08-21T05:40:44;7.50;;;1.80;;
62947;SDS011;51940;52.126;-0.994;2022-08-21T05:43:10;5.80;;;1.90;;
62947;SDS011;51940;52.126;-0.994;2022-08-21T05:45:35;5.60;;;2.10;;
62947;SDS011;51940;52.126;-0.994;2022-08-21T05:48:10;4.60;;;1.90;;
62947;SDS011;51940;52.126;-0.994;2022-08-21T05:50:40;7.20;;;2.10;;
62947;SDS011;51940;52.126;-0.994;2022-08-21T05:53:06;6.70;;;1.90;;
62947;SDS011;51940;52.126;-0.994;2022-08-21T05:55:32;5.00;;;2.00;;
62947;SDS011;51940;52.126;-0.994;2022-08-21T05:57:58;7.80;;;1.80;;
62947;SDS011;51940;52.126;-0.994;2022-08-21T06:00:24;5.10;;;1.80;;
62947;SDS011;51940;52.126;-0.994;2022-08-21T06:02:49;7.50;;;2.00;;
62947;SDS011;51940;52.126;-0.994;2022-08-21T06:05:15;6.90;;;2.00;;
62947;SDS011;51940;52.126;-0.994;2022-08-21T06:07:42;5.70;;;1.70;;
62947;SDS011;51940;52.126;-0.994;2022-08-21T06:10:08;5.60;;;1.90;;
62947;SDS011;51940;52.126;-0.994;2022-08-21T06:12:34;6.20;;;1.90;;
62947;SDS011;51940;52.126;-0.994;2022-08-21T06:14:59;6.10;;;1.80;;
62947;SDS011;51940;52.126;-0.994;2022-08-21T06:17:25;5.70;;;1.90;;
62947;SDS011;51940;52.126;-0.994;2022-08-21T06:19:52;7.70;;;1.80;;
62947;SDS011;51940;52.126;-0.994;2022-08-21T06:22:19;8.60;;;2.00;;
62947;SDS011;51940;52.126;-0.994;2022-08-21T06:24:45;3.90;;;1.60;;
62947;SDS011;51940;52.126;-0.994;2022-08-21T06:27:11;5.20;;;1.60;;
62947;SDS011;51940;52.126;-0.994;2022-08-21T06:29:38;5.00;;;1.60;;
62947;SDS011;51940;52.126;-0.994;2022-08-21T06:32:04;5.50;;;1.70;;
62947;SDS011;51940;52.126;-0.994;2022-08-21T06:34:35;6.50;;;1.60;;
62947;SDS011;51940;52.126;-0.994;2022-08-21T06:37:03;7.40;;;1.90;;
62947;SDS011;51940;52.126;-0.994;2022-08-21T06:39:30;6.40;;;1.70;;
62947;SDS011;51940;52.126;-0.994;2022-08-21T06:41:56;6.50;;;1.80;;
62947;SDS011;51940;52.126;-0.994;2022-08-21T06:44:21;5.60;;;1.40;;
62947;SDS011;51940;52.126;-0.994;2022-08-21T06:46:47;6.40;;;1.80;;
62947;SDS011;51940;52.126;-0.994;2022-08-21T06:49:13;5.40;;;1.40;;
62947;SDS011;51940;52.126;-0.994;2022-08-21T06:51:39;4.20;;;1.50;;
62947;SDS011;51940;52.126;-0.994;2022-08-21T06:54:04;10.50;;;2.00;;
62947;SDS011;51940;52.126;-0.994;2022-08-21T06:56:30;6.40;;;1.70;;
62947;SDS011;51940;52.126;-0.994;2022-08-21T06:58:55;10.20;;;2.20;;
62947;SDS011;51940;52.126;-0.994;2022-08-21T07:01:22;8.60;;;2.10;;
62947;SDS011;51940;52.126;-0.994;2022-08-21T07:03:49;9.30;;;1.80;;
62947;SDS011;51940;52.126;-0.994;2022-08-21T07:06:15;7.00;;;1.80;;
62947;SDS011;51940;52.126;-0.994;2022-08-21T07:08:40;5.30;;;1.70;;
62947;SDS011;51940;52.126;-0.994;2022-08-21T07:11:11;11.10;;;1.70;;
62947;SDS011;51940;52.126;-0.994;2022-08-21T07:13:40;5.70;;;1.40;;
62947;SDS011;51940;52.126;-0.994;2022-08-21T07:16:06;4.60;;;1.90;;
62947;SDS011;51940;52.126;-0.994;2022-08-21T07:18:31;6.80;;;2.00;;
62947;SDS011;51940;52.126;-0.994;2022-08-21T07:20:57;6.80;;;1.60;;
62947;SDS011;51940;52.126;-0.994;2022-08-21T07:23:36;7.70;;;1.60;;
62947;SDS011;51940;52.126;-0.994;2022-08-21T07:26:05;6.50;;;1.60;;
62947;SDS011;51940;52.126;-0.994;2022-08-21T07:28:30;5.50;;;1.60;;
62947;SDS011;51940;52.126;-0.994;2022-08-21T07:30:57;7.00;;;1.80;;
62947;SDS011;51940;52.126;-0.994;2022-08-21T07:33:24;8.60;;;1.60;;
62947;SDS011;51940;52.126;-0.994;2022-08-21T07:35:52;5.10;;;1.50;;
62947;SDS011;51940;52.126;-0.994;2022-08-21T07:38:17;6.60;;;1.70;;
62947;SDS011;51940;52.126;-0.994;2022-08-21T07:40:44;6.60;;;1.40;;
62947;SDS011;51940;52.126;-0.994;2022-08-21T07:43:10;8.10;;;1.80;;
62947;SDS011;51940;52.126;-0.994;2022-08-21T07:45:36;5.80;;;1.70;;
62947;SDS011;51940;52.126;-0.994;2022-08-21T07:48:03;8.00;;;1.80;;
62947;SDS011;51940;52.126;-0.994;2022-08-21T07:50:29;6.60;;;1.90;;
62947;SDS011;51940;52.126;-0.994;2022-08-21T07:52:54;11.80;;;1.90;;
62947;SDS011;51940;52.126;-0.994;2022-08-21T07:55:20;7.20;;;2.10;;
62947;SDS011;51940;52.126;-0.994;2022-08-21T07:57:46;7.20;;;1.70;;
62947;SDS011;51940;52.126;-0.994;2022-08-21T08:00:17;7.10;;;1.70;;
62947;SDS011;51940;52.126;-0.994;2022-08-21T08:02:47;10.80;;;2.10;;
62947;SDS011;51940;52.126;-0.994;2022-08-21T08:05:18;5.60;;;1.60;;
62947;SDS011;51940;52.126;-0.994;2022-08-21T08:07:46;9.00;;;1.60;;
62947;SDS011;51940;52.126;-0.994;2022-08-21T08:10:12;5.40;;;1.50;;
62947;SDS011;51940;52.126;-0.994;2022-08-21T08:12:39;6.60;;;1.60;;
62947;SDS011;51940;52.126;-0.994;2022-08-21T08:15:07;5.30;;;1.60;;
62947;SDS011;51940;52.126;-0.994;2022-08-21T08:17:36;7.40;;;2.00;;
62947;SDS011;51940;52.126;-0.994;2022-08-21T08:20:04;8.70;;;1.80;;
62947;SDS011;51940;52.126;-0.994;2022-08-21T08:22:32;10.50;;;2.20;;
62947;SDS011;51940;52.126;-0.994;2022-08-21T08:24:59;7.10;;;1.50;;
62947;SDS011;51940;52.126;-0.994;2022-08-21T08:27:25;6.90;;;1.30;;
62947;SDS011;51940;52.126;-0.994;2022-08-21T08:29:51;5.80;;;1.50;;
62947;SDS011;51940;52.126;-0.994;2022-08-21T08:32:16;5.90;;;1.60;;
62947;SDS011;51940;52.126;-0.994;2022-08-21T08:34:42;7.10;;;1.60;;
62947;SDS011;51940;52.126;-0.994;2022-08-21T08:37:08;7.00;;;1.60;;
62947;SDS011;51940;52.126;-0.994;2022-08-21T08:39:35;9.60;;;2.00;;
62947;SDS011;51940;52.126;-0.994;2022-08-21T08:42:09;9.70;;;1.90;;
62947;SDS011;51940;52.126;-0.994;2022-08-21T08:44:41;6.40;;;2.00;;
62947;SDS011;51940;52.126;-0.994;2022-08-21T08:47:08;5.00;;;1.40;;
62947;SDS011;51940;52.126;-0.994;2022-08-21T08:49:41;8.30;;;1.70;;
62947;SDS011;51940;52.126;-0.994;2022-08-21T08:54:47;6.60;;;1.90;;
62947;SDS011;51940;52.126;-0.994;2022-08-21T08:57:23;7.60;;;1.80;;
62947;SDS011;51940;52.126;-0.994;2022-08-21T08:59:50;6.80;;;1.70;;
62947;SDS011;51940;52.126;-0.994;2022-08-21T09:02:20;8.70;;;1.70;;
62947;SDS011;51940;52.126;-0.994;2022-08-21T09:04:48;6.00;;;1.60;;
62947;SDS011;51940;52.126;-0.994;2022-08-21T09:15:22;7.20;;;1.70;;
62947;SDS011;51940;52.126;-0.994;2022-08-21T09:17:57;5.40;;;1.60;;
62947;SDS011;51940;52.126;-0.994;2022-08-21T09:26:25;5.20;;;1.60;;
62947;SDS011;51940;52.126;-0.994;2022-08-21T09:28:58;4.10;;;1.40;;
62947;SDS011;51940;52.126;-0.994;2022-08-21T09:31:33;7.90;;;1.60;;
62947;SDS011;51940;52.126;-0.994;2022-08-21T09:34:05;5.40;;;1.60;;
62947;SDS011;51940;52.126;-0.994;2022-08-21T09:36:41;6.40;;;1.30;;
62947;SDS011;51940;52.126;-0.994;2022-08-21T09:39:37;4.40;;;1.30;;
62947;SDS011;51940;52.126;-0.994;2022-08-21T09:42:05;8.70;;;1.50;;
62947;SDS011;51940;52.126;-0.994;2022-08-21T09:44:34;4.30;;;1.50;;
62947;SDS011;51940;52.126;-0.994;2022-08-21T09:47:05;6.60;;;1.60;;
62947;SDS011;51940;52.126;-0.994;2022-08-21T09:49:36;6.50;;;1.60;;
62947;SDS011;51940;52.126;-0.994;2022-08-21T09:52:04;6.80;;;1.70;;
62947;SDS011;51940;52.126;-0.994;2022-08-21T09:54:40;7.40;;;1.60;;
62947;SDS011;51940;52.126;-0.994;2022-08-21T09:59:54;7.70;;;1.50;;
62947;SDS011;51940;52.126;-0.994;2022-08-21T10:02:29;5.10;;;1.60;;
62947;SDS011;51940;52.126;-0.994;2022-08-21T10:04:57;4.60;;;1.60;;
62947;SDS011;51940;52.126;-0.994;2022-08-21T10:07:28;4.50;;;1.30;;
62947;SDS011;51940;52.126;-0.994;2022-08-21T10:10:04;5.30;;;1.40;;
62947;SDS011;51940;52.126;-0.994;2022-08-21T10:15:36;4.20;;;1.70;;
62947;SDS011;51940;52.126;-0.994;2022-08-21T10:18:38;5.30;;;1.60;;
62947;SDS011;51940;52.126;-0.994;2022-08-21T10:21:29;6.90;;;1.90;;
62947;SDS011;51940;52.126;-0.994;2022-08-21T10:24:08;6.30;;;1.40;;
62947;SDS011;51940;52.126;-0.994;2022-08-21T10:26:57;3.60;;;1.30;;
62947;SDS011;51940;52.126;-0.994;2022-08-21T10:37:36;6.50;;;1.50;;
62947;SDS011;51940;52.126;-0.994;2022-08-21T10:48:35;8.20;;;1.80;;
62947;SDS011;51940;52.126;-0.994;2022-08-21T10:51:08;5.30;;;1.80;;
62947;SDS011;51940;52.126;-0.994;2022-08-21T10:56:22;7.90;;;2.10;;
62947;SDS011;51940;52.126;-0.994;2022-08-21T11:04:59;9.70;;;2.00;;
62947;SDS011;51940;52.126;-0.994;2022-08-21T11:07:35;5.50;;;1.70;;
62947;SDS011;51940;52.126;-0.994;2022-08-21T11:10:17;5.60;;;1.60;;
62947;SDS011;51940;52.126;-0.994;2022-08-21T11:12:50;4.10;;;1.50;;
62947;SDS011;51940;52.126;-0.994;2022-08-21T11:23:59;8.20;;;2.80;;
62947;SDS011;51940;52.126;-0.994;2022-08-21T11:26:41;11.60;;;2.00;;
62947;SDS011;51940;52.126;-0.994;2022-08-21T11:29:23;6.10;;;1.70;;
62947;SDS011;51940;52.126;-0.994;2022-08-21T11:32:01;5.50;;;1.50;;
62947;SDS011;51940;52.126;-0.994;2022-08-21T11:37:40;4.60;;;1.30;;
62947;SDS011;51940;52.126;-0.994;2022-08-21T11:40:31;4.80;;;1.40;;
62947;SDS011;51940;52.126;-0.994;2022-08-21T11:45:38;3.80;;;1.10;;
62947;SDS011;51940;52.126;-0.994;2022-08-21T11:51:10;4.80;;;1.30;;
62947;SDS011;51940;52.126;-0.994;2022-08-21T11:59:18;2.50;;;1.10;;
62947;SDS011;51940;52.126;-0.994;2022-08-21T12:02:06;4.80;;;1.50;;
62947;SDS011;51940;52.126;-0.994;2022-08-21T12:05:08;3.50;;;1.60;;
62947;SDS011;51940;52.126;-0.994;2022-08-21T12:07:43;3.80;;;1.60;;
62947;SDS011;51940;52.126;-0.994;2022-08-21T12:10:18;4.20;;;1.60;;
62947;SDS011;51940;52.126;-0.994;2022-08-21T12:13:04;2.00;;;1.40;;
62947;SDS011;51940;52.126;-0.994;2022-08-21T12:15:34;4.60;;;1.80;;
62947;SDS011;51940;52.126;-0.994;2022-08-21T12:18:01;4.80;;;1.60;;
62947;SDS011;51940;52.126;-0.994;2022-08-21T12:23:49;4.80;;;1.60;;
62947;SDS011;51940;52.126;-0.994;2022-08-21T12:26:51;4.40;;;1.50;;
62947;SDS011;51940;52.126;-0.994;2022-08-21T12:29:37;5.10;;;1.80;;
62947;SDS011;51940;52.126;-0.994;2022-08-21T12:32:04;4.40;;;1.80;;
62947;SDS011;51940;52.126;-0.994;2022-08-21T12:35:01;6.90;;;1.80;;
62947;SDS011;51940;52.126;-0.994;2022-08-21T12:37:40;3.80;;;1.60;;
62947;SDS011;51940;52.126;-0.994;2022-08-21T12:40:23;5.20;;;1.60;;
62947;SDS011;51940;52.126;-0.994;2022-08-21T12:45:28;5.50;;;1.80;;
62947;SDS011;51940;52.126;-0.994;2022-08-21T12:48:16;6.50;;;1.70;;
62947;SDS011;51940;52.126;-0.994;2022-08-21T12:50:50;5.40;;;1.70;;
62947;SDS011;51940;52.126;-0.994;2022-08-21T12:56:30;5.00;;;1.60;;
62947;SDS011;51940;52.126;-0.994;2022-08-21T12:59:01;4.00;;;1.50;;
62947;SDS011;51940;52.126;-0.994;2022-08-21T13:01:37;4.10;;;1.50;;
62947;SDS011;51940;52.126;-0.994;2022-08-21T13:04:11;4.10;;;1.60;;
62947;SDS011;51940;52.126;-0.994;2022-08-21T13:06:43;3.90;;;1.50;;
62947;SDS011;51940;52.126;-0.994;2022-08-21T13:09:11;4.50;;;1.40;;
62947;SDS011;51940;52.126;-0.994;2022-08-21T13:11:40;3.50;;;1.10;;
62947;SDS011;51940;52.126;-0.994;2022-08-21T13:14:10;4.90;;;1.50;;
62947;SDS011;51940;52.126;-0.994;2022-08-21T13:16:45;3.90;;;1.20;;
62947;SDS011;51940;52.126;-0.994;2022-08-21T13:19:15;4.80;;;1.60;;
62947;SDS011;51940;52.126;-0.994;2022-08-21T13:21:44;4.30;;;1.10;;
62947;SDS011;51940;52.126;-0.994;2022-08-21T13:24:32;3.80;;;1.20;;
62947;SDS011;51940;52.126;-0.994;2022-08-21T13:26:58;4.50;;;1.10;;
62947;SDS011;51940;52.126;-0.994;2022-08-21T13:29:27;3.70;;;1.00;;
62947;SDS011;51940;52.126;-0.994;2022-08-21T13:32:00;4.30;;;1.00;;
62947;SDS011;51940;52.126;-0.994;2022-08-21T13:34:33;3.40;;;1.20;;
62947;SDS011;51940;52.126;-0.994;2022-08-21T13:37:08;3.60;;;1.20;;
62947;SDS011;51940;52.126;-0.994;2022-08-21T13:39:36;3.80;;;1.10;;
62947;SDS011;51940;52.126;-0.994;2022-08-21T13:42:03;3.90;;;1.10;;
62947;SDS011;51940;52.126;-0.994;2022-08-21T13:44:41;2.80;;;1.10;;
62947;SDS011;51940;52.126;-0.994;2022-08-21T13:47:09;3.50;;;1.20;;
62947;SDS011;51940;52.126;-0.994;2022-08-21T13:49:45;2.30;;;1.10;;
62947;SDS011;51940;52.126;-0.994;2022-08-21T13:52:22;4.00;;;1.10;;
62947;SDS011;51940;52.126;-0.994;2022-08-21T13:54:57;3.30;;;1.20;;
62947;SDS011;51940;52.126;-0.994;2022-08-21T13:57:26;3.50;;;1.20;;
62947;SDS011;51940;52.126;-0.994;2022-08-21T14:00:09;4.10;;;0.90;;
62947;SDS011;51940;52.126;-0.994;2022-08-21T14:02:38;4.20;;;1.30;;
62947;SDS011;51940;52.126;-0.994;2022-08-21T14:05:06;3.30;;;1.30;;
62947;SDS011;51940;52.126;-0.994;2022-08-21T14:10:20;4.60;;;2.10;;
62947;SDS011;51940;52.126;-0.994;2022-08-21T14:12:51;3.10;;;1.20;;
62947;SDS011;51940;52.126;-0.994;2022-08-21T14:15:23;2.70;;;1.00;;
62947;SDS011;51940;52.126;-0.994;2022-08-21T14:17:50;4.80;;;1.10;;
62947;SDS011;51940;52.126;-0.994;2022-08-21T14:20:33;4.00;;;1.00;;
62947;SDS011;51940;52.126;-0.994;2022-08-21T14:23:01;3.40;;;1.00;;
62947;SDS011;51940;52.126;-0.994;2022-08-21T14:25:45;2.30;;;1.10;;
62947;SDS011;51940;52.126;-0.994;2022-08-21T14:28:24;4.40;;;1.20;;
62947;SDS011;51940;52.126;-0.994;2022-08-21T14:30:53;2.40;;;1.10;;
62947;SDS011;51940;52.126;-0.994;2022-08-21T14:33:25;4.20;;;1.80;;
62947;SDS011;51940;52.126;-0.994;2022-08-21T14:35:56;3.20;;;0.90;;
62947;SDS011;51940;52.126;-0.994;2022-08-21T14:38:23;2.60;;;1.00;;
62947;SDS011;51940;52.126;-0.994;2022-08-21T14:40:51;2.50;;;1.00;;
62947;SDS011;51940;52.126;-0.994;2022-08-21T14:43:20;2.50;;;0.80;;
62947;SDS011;51940;52.126;-0.994;2022-08-21T14:45:46;2.70;;;1.20;;
62947;SDS011;51940;52.126;-0.994;2022-08-21T14:48:13;4.00;;;0.80;;
62947;SDS011;51940;52.126;-0.994;2022-08-21T14:50:39;2.40;;;0.70;;
62947;SDS011;51940;52.126;-0.994;2022-08-21T14:53:05;2.80;;;1.00;;
62947;SDS011;51940;52.126;-0.994;2022-08-21T14:55:31;2.20;;;1.00;;
62947;SDS011;51940;52.126;-0.994;2022-08-21T14:58:20;2.30;;;1.00;;
62947;SDS011;51940;52.126;-0.994;2022-08-21T15:00:48;4.10;;;1.20;;
62947;SDS011;51940;52.126;-0.994;2022-08-21T15:03:15;2.80;;;1.10;;
62947;SDS011;51940;52.126;-0.994;2022-08-21T15:05:41;2.30;;;0.70;;
62947;SDS011;51940;52.126;-0.994;2022-08-21T15:08:06;4.70;;;1.30;;
62947;SDS011;51940;52.126;-0.994;2022-08-21T15:10:32;2.50;;;1.10;;
62947;SDS011;51940;52.126;-0.994;2022-08-21T15:13:00;4.30;;;1.00;;
62947;SDS011;51940;52.126;-0.994;2022-08-21T15:15:26;4.00;;;1.10;;
62947;SDS011;51940;52.126;-0.994;2022-08-21T15:17:53;3.00;;;0.90;;
62947;SDS011;51940;52.126;-0.994;2022-08-21T15:20:19;2.10;;;1.00;;
62947;SDS011;51940;52.126;-0.994;2022-08-21T15:22:44;2.40;;;1.10;;
62947;SDS011;51940;52.126;-0.994;2022-08-21T15:25:10;3.60;;;1.40;;
62947;SDS011;51940;52.126;-0.994;2022-08-21T15:27:36;4.70;;;0.90;;
62947;SDS011;51940;52.126;-0.994;2022-08-21T15:30:03;4.20;;;1.00;;
62947;SDS011;51940;52.126;-0.994;2022-08-21T15:32:28;2.90;;;1.10;;
62947;SDS011;51940;52.126;-0.994;2022-08-21T15:34:56;4.10;;;1.00;;
62947;SDS011;51940;52.126;-0.994;2022-08-21T15:37:22;3.50;;;0.80;;
62947;SDS011;51940;52.126;-0.994;2022-08-21T15:39:50;5.10;;;1.20;;
62947;SDS011;51940;52.126;-0.994;2022-08-21T15:42:17;3.00;;;0.90;;
62947;SDS011;51940;52.126;-0.994;2022-08-21T15:44:44;3.40;;;1.20;;
62947;SDS011;51940;52.126;-0.994;2022-08-21T15:47:16;3.10;;;1.00;;
62947;SDS011;51940;52.126;-0.994;2022-08-21T15:49:46;3.30;;;1.30;;
62947;SDS011;51940;52.126;-0.994;2022-08-21T15:52:15;5.70;;;1.10;;
62947;SDS011;51940;52.126;-0.994;2022-08-21T15:54:43;3.20;;;0.90;;
62947;SDS011;51940;52.126;-0.994;2022-08-21T15:57:09;5.40;;;1.20;;
62947;SDS011;51940;52.126;-0.994;2022-08-21T15:59:41;2.20;;;1.00;;
62947;SDS011;51940;52.126;-0.994;2022-08-21T16:02:13;4.40;;;1.10;;
62947;SDS011;51940;52.126;-0.994;2022-08-21T16:04:44;4.80;;;1.10;;
62947;SDS011;51940;52.126;-0.994;2022-08-21T16:07:09;3.10;;;1.20;;
62947;SDS011;51940;52.126;-0.994;2022-08-21T16:09:35;4.90;;;1.00;;
62947;SDS011;51940;52.126;-0.994;2022-08-21T16:12:02;4.00;;;1.00;;